createdAt,value
2019-04-06T00:04:01.619Z,8.91
2019-04-06T00:06:31.270Z,8.91
2019-04-06T00:09:00.957Z,8.91
2019-04-06T00:11:44.081Z,8.93
2019-04-06T00:14:13.758Z,8.93
2019-04-06T00:16:46.903Z,8.95
2019-04-06T00:19:16.528Z,8.93
2019-04-06T00:21:46.218Z,8.92
2019-04-06T00:24:15.737Z,8.91
2019-04-06T00:26:57.638Z,8.90
2019-04-06T00:29:39.179Z,8.88
2019-04-06T00:32:28.718Z,8.82
2019-04-06T00:34:58.356Z,8.80
2019-04-06T00:37:27.840Z,8.73
2019-04-06T00:39:57.218Z,8.73
2019-04-06T00:42:26.792Z,8.69
2019-04-06T00:44:56.436Z,8.68
2019-04-06T00:47:25.942Z,8.71
2019-04-06T00:49:55.551Z,8.73
2019-04-06T00:52:27.099Z,8.70
2019-04-06T00:54:56.761Z,8.70
2019-04-06T00:57:26.142Z,8.72
2019-04-06T00:59:56.140Z,8.73
2019-04-06T01:02:25.471Z,8.69
2019-04-06T01:04:55.158Z,8.71
2019-04-06T01:07:25.169Z,8.75
2019-04-06T01:09:54.899Z,8.78
2019-04-06T01:12:24.582Z,8.76
2019-04-06T01:14:54.185Z,8.80
2019-04-06T01:17:23.871Z,8.83
2019-04-06T01:19:54.305Z,8.82
2019-04-06T01:22:42.953Z,8.79
2019-04-06T01:25:12.492Z,8.79
2019-04-06T01:27:41.884Z,8.76
2019-04-06T01:33:45.082Z,8.74
2019-04-06T01:36:14.750Z,8.72
2019-04-06T01:38:44.141Z,8.72
2019-04-06T01:41:13.820Z,8.72
2019-04-06T01:43:43.198Z,8.72
2019-04-06T01:46:12.866Z,8.75
2019-04-06T01:48:42.251Z,8.75
2019-04-06T01:51:12.353Z,8.73
2019-04-06T01:53:54.000Z,8.81
2019-04-06T01:56:23.393Z,8.81
2019-04-06T01:58:54.065Z,8.84
2019-04-06T02:04:19.254Z,8.82
2019-04-06T02:06:48.637Z,8.83
2019-04-06T02:09:37.433Z,8.83
2019-04-06T02:12:19.316Z,8.79
2019-04-06T02:14:49.007Z,8.79
2019-04-06T02:17:18.421Z,8.85
2019-04-06T02:19:47.993Z,8.87
2019-04-06T02:22:17.414Z,8.86
2019-04-06T02:24:47.138Z,8.85
2019-04-06T02:27:28.955Z,8.90
2019-04-06T02:30:12.376Z,8.93
2019-04-06T02:36:27.787Z,8.87
2019-04-06T02:39:35.799Z,8.87
2019-04-06T02:44:47.232Z,8.85
2019-04-06T02:47:17.294Z,8.90
2019-04-06T02:49:46.963Z,8.89
2019-04-06T02:52:16.341Z,8.91
2019-04-06T02:54:46.319Z,8.88
2019-04-06T02:57:29.260Z,8.85
2019-04-06T03:00:18.988Z,8.87
2019-04-06T03:02:50.067Z,8.91
2019-04-06T03:05:19.757Z,8.93
2019-04-06T03:10:45.033Z,8.94
2019-04-06T03:13:14.415Z,8.97
2019-04-06T03:15:44.147Z,9.00
2019-04-06T03:18:13.829Z,9.01
2019-04-06T03:20:43.199Z,9.00
2019-04-06T03:23:12.586Z,8.98
2019-04-06T03:25:54.418Z,8.96
2019-04-06T03:28:24.050Z,8.96
2019-04-06T03:33:55.428Z,8.99
2019-04-06T03:36:25.105Z,9.02
2019-04-06T03:38:54.942Z,8.99
2019-04-06T03:41:24.298Z,9.03
2019-04-06T03:43:54.819Z,9.04
2019-04-06T03:46:24.183Z,9.07
2019-04-06T03:48:54.465Z,9.13
2019-04-06T03:51:36.314Z,9.15
2019-04-06T03:54:26.640Z,9.15
2019-04-06T03:57:16.937Z,9.19
2019-04-06T03:59:55.621Z,9.19
2019-04-06T04:02:44.576Z,9.14
2019-04-06T04:05:14.280Z,9.14
2019-04-06T04:10:47.432Z,9.12
2019-04-06T04:13:48.167Z,9.15
2019-04-06T04:16:17.533Z,9.13
2019-04-06T04:18:47.214Z,9.12
2019-04-06T04:21:29.321Z,9.12
2019-04-06T04:23:58.714Z,9.13
2019-04-06T04:26:47.871Z,9.12
2019-04-06T04:29:17.252Z,9.12
2019-04-06T04:31:48.250Z,9.16
2019-04-06T04:34:17.472Z,9.17
2019-04-06T04:36:47.306Z,9.18
2019-04-06T04:39:16.769Z,9.23
2019-04-06T04:41:58.457Z,9.27
2019-04-06T04:44:40.497Z,9.27
2019-04-06T04:47:23.765Z,9.30
2019-04-06T04:50:07.497Z,9.33
2019-04-06T04:52:49.334Z,9.37
2019-04-06T04:55:31.120Z,9.35
2019-04-06T05:03:41.560Z,9.24
2019-04-06T05:06:10.973Z,9.18
2019-04-06T05:08:59.576Z,9.19
2019-04-06T05:11:29.232Z,9.18
2019-04-06T05:14:37.321Z,9.20
2019-04-06T05:17:27.988Z,9.21
2019-04-06T05:19:58.525Z,9.23
2019-04-06T05:22:49.014Z,9.27
2019-04-06T05:25:18.708Z,9.27
2019-04-06T05:28:00.826Z,9.26
2019-04-06T05:30:43.321Z,9.26
2019-04-06T05:33:12.663Z,9.26
2019-04-06T05:35:42.387Z,9.27
2019-04-06T05:38:11.758Z,9.25
2019-04-06T05:40:41.449Z,9.25
2019-04-06T05:43:30.259Z,9.28
2019-04-06T05:46:12.537Z,9.31
2019-04-06T05:48:41.979Z,9.31
2019-04-06T05:51:11.375Z,9.34
2019-04-06T05:53:53.095Z,9.34
2019-04-06T05:56:23.235Z,9.32
2019-04-06T06:02:10.746Z,9.41
2019-04-06T06:04:41.081Z,9.41
2019-04-06T06:07:17.078Z,9.43
2019-04-06T06:09:59.417Z,9.50
2019-04-06T06:12:42.274Z,9.50
2019-04-06T06:15:11.979Z,9.51
2019-04-06T06:17:41.707Z,9.51
2019-04-06T06:23:13.121Z,9.61
2019-04-06T06:26:02.443Z,9.63
2019-04-06T06:28:52.555Z,9.63
2019-04-06T06:31:24.469Z,9.61
2019-04-06T06:34:06.910Z,9.57
2019-04-06T06:36:36.503Z,9.57
2019-04-06T06:39:26.749Z,9.64
2019-04-06T06:41:56.158Z,9.68
2019-04-06T06:44:44.855Z,9.69
2019-04-06T06:47:14.251Z,9.75
2019-04-06T06:52:58.324Z,9.77
2019-04-06T06:55:40.149Z,9.82
2019-04-06T06:58:10.029Z,9.82
2019-04-06T07:00:39.446Z,9.77
2019-04-06T07:03:09.069Z,9.80
2019-04-06T07:06:19.022Z,9.88
2019-04-06T07:08:48.649Z,10.01
2019-04-06T07:11:37.147Z,10.15
2019-04-06T07:14:08.464Z,10.25
2019-04-06T07:16:38.037Z,10.35
2019-04-06T07:19:07.415Z,10.47
2019-04-06T07:21:36.867Z,10.52
2019-04-06T07:27:15.362Z,10.76
2019-04-06T07:29:44.933Z,10.78
2019-04-06T07:32:14.304Z,10.88
2019-04-06T07:34:44.168Z,11.04
2019-04-06T07:37:13.522Z,11.04
2019-04-06T07:39:42.908Z,11.20
2019-04-06T07:42:12.274Z,11.28
2019-04-06T07:45:01.270Z,11.67
2019-04-06T07:47:32.249Z,11.67
2019-04-06T07:50:01.632Z,12.14
2019-04-06T07:52:43.153Z,12.44
2019-04-06T07:55:24.936Z,12.71
2019-04-06T07:58:07.354Z,12.89
2019-04-06T08:00:37.021Z,13.11
2019-04-06T08:03:06.508Z,13.23
2019-04-06T08:05:55.480Z,13.36
2019-04-06T08:08:24.991Z,13.45
2019-04-06T08:13:55.459Z,13.66
2019-04-06T08:16:25.169Z,13.59
2019-04-06T08:18:55.470Z,13.59
2019-04-06T08:21:25.064Z,13.69
2019-04-06T08:23:55.368Z,13.75
2019-04-06T08:26:25.172Z,13.68
2019-04-06T08:29:01.968Z,13.54
2019-04-06T08:31:32.333Z,13.38
2019-04-06T08:36:42.414Z,13.37
2019-04-06T08:39:12.104Z,13.46
2019-04-06T08:41:41.472Z,13.39
2019-04-06T08:44:23.990Z,13.37
2019-04-06T08:46:53.365Z,13.58
2019-04-06T08:49:22.724Z,13.85
2019-04-06T08:51:52.158Z,14.10
2019-04-06T08:54:21.521Z,14.32
2019-04-06T08:56:51.085Z,14.52
2019-04-06T09:02:45.786Z,14.67
2019-04-06T09:05:27.985Z,14.88
2019-04-06T09:07:57.379Z,15.06
2019-04-06T09:10:26.752Z,15.37
2019-04-06T09:13:09.666Z,15.62
2019-04-06T09:15:39.245Z,15.44
2019-04-06T09:18:29.285Z,15.18
2019-04-06T09:20:58.664Z,15.00
2019-04-06T09:23:28.111Z,14.98
2019-04-06T09:25:57.504Z,14.96
2019-04-06T09:28:27.237Z,15.00
2019-04-06T09:31:09.191Z,15.06
2019-04-06T09:33:51.184Z,15.05
2019-04-06T09:36:20.899Z,15.26
2019-04-06T09:38:50.277Z,15.68
2019-04-06T09:41:19.671Z,16.10
2019-04-06T09:43:49.326Z,16.45
2019-04-06T09:46:37.877Z,16.76
2019-04-06T09:49:28.310Z,16.95
2019-04-06T09:52:16.831Z,16.90
2019-04-06T09:55:05.470Z,16.75
2019-04-06T10:03:26.663Z,17.05
2019-04-06T10:09:11.389Z,17.27
2019-04-06T10:12:12.702Z,17.44
2019-04-06T10:15:01.579Z,17.64
2019-04-06T10:23:31.471Z,17.89
2019-04-06T10:26:39.368Z,18.12
2019-04-06T10:29:48.250Z,18.41
2019-04-06T10:32:43.367Z,18.60
2019-04-06T10:35:44.029Z,18.51
2019-04-06T10:38:33.281Z,18.45
2019-04-06T10:44:30.993Z,19.28
2019-04-06T10:47:19.956Z,19.52
2019-04-06T10:52:47.630Z,20.04
2019-04-06T10:55:36.139Z,20.23
2019-04-06T10:58:36.934Z,20.64
2019-04-06T11:01:26.240Z,20.69
2019-04-06T11:07:10.941Z,20.16
2019-04-06T11:09:59.698Z,20.12
2019-04-06T11:12:48.142Z,20.29
2019-04-06T11:15:51.694Z,20.66
2019-04-06T11:18:52.491Z,20.60
2019-04-06T11:21:36.433Z,20.41
2019-04-06T11:24:37.085Z,20.67
2019-04-06T11:27:25.820Z,21.14
2019-04-06T11:30:15.407Z,21.14
2019-04-06T11:33:16.413Z,21.19
2019-04-06T11:39:05.832Z,21.42
2019-04-06T11:41:55.450Z,21.28
2019-04-06T11:44:56.196Z,21.18
2019-04-06T11:47:45.923Z,21.33
2019-04-06T11:50:34.953Z,21.02
2019-04-06T11:53:21.121Z,20.90
2019-04-06T11:56:09.800Z,20.83
2019-04-06T11:58:58.304Z,20.76
2019-04-06T12:01:47.035Z,20.74
2019-04-06T12:04:36.060Z,20.90
2019-04-06T12:07:38.056Z,21.33
2019-04-06T12:10:27.134Z,21.71
2019-04-06T12:13:15.953Z,21.91
2019-04-06T12:16:04.789Z,22.01
2019-04-06T12:18:53.282Z,21.93
2019-04-06T12:21:36.470Z,21.68
2019-04-06T12:24:37.982Z,21.57
2019-04-06T12:33:23.127Z,21.52
2019-04-06T12:36:11.876Z,21.80
2019-04-06T12:39:00.655Z,22.23
2019-04-06T12:41:50.915Z,22.22
2019-04-06T12:44:52.224Z,22.30
2019-04-06T12:47:37.487Z,22.38
2019-04-06T12:50:24.207Z,22.49
2019-04-06T12:53:25.165Z,22.61
2019-04-06T12:56:15.486Z,22.85
2019-04-06T13:02:17.076Z,23.15
2019-04-06T13:07:44.873Z,23.06
2019-04-06T13:10:33.652Z,23.23
2019-04-06T13:16:18.469Z,23.53
2019-04-06T13:19:06.984Z,23.32
2019-04-06T13:21:47.419Z,23.07
2019-04-06T13:24:36.016Z,22.72
2019-04-06T13:27:19.764Z,22.50
2019-04-06T13:30:08.290Z,22.57
2019-04-06T13:32:57.726Z,22.65
2019-04-06T13:38:27.727Z,22.66
2019-04-06T13:41:16.519Z,23.12
2019-04-06T13:47:02.129Z,22.83
2019-04-06T13:49:50.791Z,22.96
2019-04-06T13:52:39.199Z,23.29
2019-04-06T13:55:27.999Z,23.55
2019-04-06T14:04:40.325Z,22.73
2019-04-06T14:07:29.321Z,22.60
2019-04-06T14:10:18.113Z,22.41
2019-04-06T14:13:06.944Z,22.43
2019-04-06T14:21:15.429Z,23.25
2019-04-06T14:24:04.138Z,23.08
2019-04-06T14:27:05.653Z,22.97
2019-04-06T14:29:54.183Z,22.99
2019-04-06T14:35:38.142Z,22.84
2019-04-06T14:38:47.936Z,22.85
2019-04-06T14:41:36.445Z,22.85
2019-04-06T14:47:48.224Z,23.01
2019-04-06T14:50:36.705Z,23.02
2019-04-06T14:53:25.198Z,22.92
2019-04-06T14:56:15.390Z,22.81
2019-04-06T14:59:06.406Z,22.91
2019-04-06T15:04:35.689Z,22.99
2019-04-06T15:10:26.747Z,22.24
2019-04-06T15:13:15.739Z,22.02
2019-04-06T15:19:13.974Z,22.00
2019-04-06T15:22:02.441Z,22.00
2019-04-06T15:27:47.470Z,22.28
2019-04-06T15:30:36.335Z,22.38
2019-04-06T15:33:25.557Z,22.25
2019-04-06T15:36:15.591Z,22.17
2019-04-06T15:39:16.710Z,22.29
2019-04-06T15:44:45.153Z,22.07
2019-04-06T15:50:13.058Z,21.86
2019-04-06T15:53:01.583Z,21.88
2019-04-06T15:55:50.273Z,21.92
2019-04-06T15:58:38.788Z,22.05
2019-04-06T16:01:27.569Z,22.14
2019-04-06T16:07:42.000Z,22.10
2019-04-06T16:10:29.587Z,21.64
2019-04-06T16:18:55.273Z,21.28
2019-04-06T16:21:43.770Z,21.18
2019-04-06T16:30:09.582Z,21.22
2019-04-06T16:32:58.259Z,21.26
2019-04-06T16:38:42.286Z,20.96
2019-04-06T16:41:31.301Z,20.83
2019-04-06T16:44:14.725Z,20.85
2019-04-06T16:47:16.377Z,20.90
2019-04-06T16:58:59.380Z,20.74
2019-04-06T17:01:48.184Z,20.79
2019-04-06T17:04:36.700Z,20.75
2019-04-06T17:07:25.482Z,20.64
2019-04-06T17:10:13.996Z,20.55
2019-04-06T17:13:02.796Z,20.45
2019-04-06T17:15:51.430Z,20.34
2019-04-06T17:18:40.009Z,20.33
2019-04-06T17:21:48.029Z,20.39
2019-04-06T17:24:36.357Z,20.48
2019-04-06T17:27:19.955Z,20.53
2019-04-06T17:30:21.047Z,20.55
2019-04-06T17:33:09.975Z,20.54
2019-04-06T17:39:27.928Z,20.49
2019-04-06T17:45:31.444Z,20.36
2019-04-06T17:48:21.781Z,20.35
2019-04-06T17:51:10.590Z,20.31
2019-04-06T17:54:12.143Z,20.22
2019-04-06T17:57:13.305Z,20.20
2019-04-06T18:00:02.891Z,20.16
2019-04-06T18:02:51.887Z,20.08
2019-04-06T18:08:40.347Z,19.87
2019-04-06T18:11:24.189Z,19.77
2019-04-06T18:16:49.425Z,19.53
2019-04-06T18:19:31.368Z,19.42
2019-04-06T18:22:14.799Z,19.32
2019-04-06T18:24:44.428Z,19.23
2019-04-06T18:27:14.235Z,19.12
2019-04-06T18:29:55.779Z,19.02
2019-04-06T18:32:39.547Z,18.92
2019-04-06T18:40:44.883Z,18.63
2019-04-06T18:43:14.389Z,18.53
2019-04-06T18:45:43.771Z,18.46
2019-04-06T18:54:05.200Z,18.22
2019-04-06T18:56:54.883Z,18.13
2019-04-06T18:59:37.467Z,18.05
2019-04-06T19:02:06.986Z,17.98
2019-04-06T19:04:36.505Z,17.90
2019-04-06T19:07:18.604Z,17.83
2019-04-06T19:10:00.748Z,17.75
2019-04-06T19:12:43.067Z,17.68
2019-04-06T19:15:12.795Z,17.61
2019-04-06T19:17:42.167Z,17.55
2019-04-06T19:20:32.776Z,17.48
2019-04-06T19:23:02.636Z,17.43
2019-04-06T19:28:55.334Z,17.30
2019-04-06T19:31:31.722Z,17.15
2019-04-06T19:34:21.044Z,17.15
2019-04-06T19:37:03.645Z,17.03
2019-04-06T19:39:34.487Z,17.03
2019-04-06T19:42:16.224Z,16.98
2019-04-06T19:44:58.363Z,16.90
2019-04-06T19:47:39.609Z,16.85
2019-04-06T19:50:24.151Z,16.79
2019-04-06T19:52:53.932Z,16.75
2019-04-06T19:55:23.610Z,16.70
2019-04-06T19:57:52.991Z,16.67
2019-04-06T20:03:39.525Z,16.60
2019-04-06T20:06:19.017Z,16.53
2019-04-06T20:08:48.940Z,16.49
2019-04-06T20:11:31.175Z,16.44
2019-04-06T20:14:14.529Z,16.39
2019-04-06T20:16:56.515Z,16.31
2019-04-06T20:19:38.421Z,16.25
2019-04-06T20:22:08.094Z,16.20
2019-04-06T20:24:37.846Z,16.16
2019-04-06T20:27:07.221Z,16.09
2019-04-06T20:29:48.847Z,16.06
2019-04-06T20:32:18.715Z,16.06
2019-04-06T20:34:54.865Z,16.07
2019-04-06T20:37:24.236Z,16.06
2019-04-06T20:39:54.262Z,16.02
2019-04-06T20:42:31.403Z,15.98
2019-04-06T20:45:47.118Z,15.93
2019-04-06T20:48:16.750Z,15.88
2019-04-06T20:50:46.188Z,15.81
2019-04-06T20:53:15.804Z,15.76
2019-04-06T20:55:46.281Z,15.72
2019-04-06T20:58:23.040Z,15.67
2019-04-06T21:00:52.930Z,15.65
2019-04-06T21:03:42.882Z,15.62
2019-04-06T21:06:25.075Z,15.58
2019-04-06T21:09:08.928Z,15.45
2019-04-06T21:11:50.405Z,15.45
2019-04-06T21:14:32.570Z,15.43
2019-04-06T21:17:02.581Z,15.39
2019-04-06T21:19:32.395Z,15.33
2019-04-06T21:22:02.997Z,15.29
2019-04-06T21:24:32.870Z,15.25
2019-04-06T21:27:22.842Z,15.18
2019-04-06T21:29:52.830Z,15.13
2019-04-06T21:32:42.507Z,15.09
2019-04-06T21:35:12.563Z,15.02
2019-04-06T21:38:02.660Z,14.97
2019-04-06T21:40:32.993Z,14.91
2019-04-06T21:43:09.569Z,14.85
2019-04-06T21:45:39.313Z,14.79
2019-04-06T21:48:41.316Z,14.72
2019-04-06T21:51:23.350Z,14.62
2019-04-06T21:54:04.968Z,14.51
2019-04-06T21:56:46.900Z,14.44
2019-04-06T21:59:28.993Z,14.40
2019-04-06T22:01:59.082Z,14.36
2019-04-06T22:04:54.941Z,14.32
2019-04-06T22:07:24.331Z,14.32
2019-04-06T22:09:53.994Z,14.32
2019-04-06T22:12:23.925Z,14.31
2019-04-06T22:15:05.885Z,14.31
2019-04-06T22:17:35.978Z,14.28
2019-04-06T22:20:28.153Z,14.25
2019-04-06T22:23:08.294Z,14.21
2019-04-06T22:25:44.884Z,14.18
2019-04-06T22:28:21.009Z,14.15
2019-04-06T22:30:50.842Z,14.13
2019-04-06T22:33:41.284Z,14.09
2019-04-06T22:36:10.934Z,14.05
2019-04-06T22:38:40.315Z,14.01
2019-04-06T22:41:09.974Z,13.97
2019-04-06T22:43:53.092Z,13.93
2019-04-06T22:46:22.450Z,13.90
2019-04-06T22:51:48.274Z,13.82
2019-04-06T22:54:24.094Z,13.79
2019-04-06T22:57:06.317Z,13.73
2019-04-06T22:59:35.692Z,13.69
2019-04-06T23:05:41.506Z,13.65
2019-04-06T23:08:11.175Z,13.60
2019-04-06T23:10:40.915Z,13.59
2019-04-06T23:13:17.703Z,13.56
2019-04-06T23:15:54.287Z,13.54
2019-04-06T23:18:31.140Z,13.53
2019-04-06T23:21:00.867Z,13.51
2019-04-06T23:23:30.406Z,13.49
2019-04-06T23:26:19.116Z,13.49
2019-04-06T23:28:49.035Z,13.49
2019-04-06T23:31:38.672Z,13.47
2019-04-06T23:34:08.918Z,13.48
2019-04-06T23:36:45.297Z,13.52
2019-04-06T23:39:14.781Z,13.82
2019-04-06T23:41:44.901Z,14.20
2019-04-06T23:44:21.219Z,14.46
2019-04-06T23:46:57.677Z,14.48
2019-04-06T23:49:27.583Z,14.32
2019-04-06T23:51:57.793Z,14.14
2019-04-06T23:54:27.272Z,13.97
2019-04-06T23:56:57.962Z,13.82
2019-04-06T23:59:46.391Z,13.72
